Claude, Oregon
Current Conditions -  °F | °C
As of 3:53 AM on Friday 24 Oct 2014 (Local Time) from KONO Reporting Station
Light Rain Light Rain  
Wind Chill: 11°   Ceiling: 6000
Heat Index: 11°   Visibility: 9mi
Dew Point: 10°   Wind: 0mph
Humidity: 93%   Direction: NA
Pressure: 30.09"   Gusts: NA
Location:  44.0817°N, 117.014°W
Report Text: KONO 240953Z AUTO 00000KT 9SM -RA OVC060 11/10 A3009 RMK AO2 RAB48 SLP191 P0000 T01110100
Loading
Personal Weather Stations






























Interactive Weather Map
Tropical Storm Tracking
New forecast layout! Learn more

10-Day Weather Forecast

Advertisements
Track Severe Weather on mobile